sensor_id;sensor_type;location;lat;lon;timestamp;pressure;altitude;pressure_sealevel;temperature;humidity
7333;BME280;3707;43.618;25.342;2023-05-06T00:02:11;100391.16;;;17.46;100.00
7333;BME280;3707;43.618;25.342;2023-05-06T00:04:38;100400.72;;;17.57;100.00
7333;BME280;3707;43.618;25.342;2023-05-06T00:07:05;100402.44;;;17.52;100.00
7333;BME280;3707;43.618;25.342;2023-05-06T00:09:32;100399.88;;;17.45;100.00
7333;BME280;3707;43.618;25.342;2023-05-06T00:12:00;100402.44;;;17.52;100.00
7333;BME280;3707;43.618;25.342;2023-05-06T00:14:26;100372.13;;;17.22;100.00
7333;BME280;3707;43.618;25.342;2023-05-06T00:16:53;100384.31;;;17.23;100.00
7333;BME280;3707;43.618;25.342;2023-05-06T00:19:20;100384.44;;;17.07;100.00
7333;BME280;3707;43.618;25.342;2023-05-06T00:21:47;100384.38;;;17.17;100.00
7333;BME280;3707;43.618;25.342;2023-05-06T00:24:14;100407.88;;;17.28;100.00
7333;BME280;3707;43.618;25.342;2023-05-06T00:26:40;100402.69;;;17.22;100.00
7333;BME280;3707;43.618;25.342;2023-05-06T00:29:08;100403.47;;;17.34;100.00
7333;BME280;3707;43.618;25.342;2023-05-06T00:31:35;100399.19;;;17.24;100.00
7333;BME280;3707;43.618;25.342;2023-05-06T00:34:02;100399.13;;;17.33;100.00
7333;BME280;3707;43.618;25.342;2023-05-06T00:36:29;100394.81;;;17.23;100.00
7333;BME280;3707;43.618;25.342;2023-05-06T00:38:55;100404.50;;;17.09;100.00
7333;BME280;3707;43.618;25.342;2023-05-06T00:41:22;100399.34;;;16.96;100.00
7333;BME280;3707;43.618;25.342;2023-05-06T00:43:49;100401.97;;;16.96;100.00
7333;BME280;3707;43.618;25.342;2023-05-06T00:46:17;100395.78;;;17.09;100.00
7333;BME280;3707;43.618;25.342;2023-05-06T00:48:44;100401.16;;;16.84;100.00
7333;BME280;3707;43.618;25.342;2023-05-06T00:51:11;100394.16;;;16.88;100.00
7333;BME280;3707;43.618;25.342;2023-05-06T00:53:38;100382.00;;;16.78;100.00
7333;BME280;3707;43.618;25.342;2023-05-06T00:56:06;100383.66;;;16.93;100.00
7333;BME280;3707;43.618;25.342;2023-05-06T00:58:34;100402.00;;;16.88;100.00
7333;BME280;3707;43.618;25.342;2023-05-06T01:01:01;100382.06;;;16.66;100.00
7333;BME280;3707;43.618;25.342;2023-05-06T01:03:30;100391.56;;;16.85;100.00
7333;BME280;3707;43.618;25.342;2023-05-06T01:06:06;100398.47;;;16.98;100.00
7333;BME280;3707;43.618;25.342;2023-05-06T01:08:38;100386.25;;;16.97;100.00
7333;BME280;3707;43.618;25.342;2023-05-06T01:11:11;100388.84;;;17.03;100.00
7333;BME280;3707;43.618;25.342;2023-05-06T01:13:43;100383.66;;;16.97;100.00
7333;BME280;3707;43.618;25.342;2023-05-06T01:16:12;100388.97;;;16.82;100.00
7333;BME280;3707;43.618;25.342;2023-05-06T01:18:42;100317.53;;;16.50;100.00
7333;BME280;3707;43.618;25.342;2023-05-06T01:21:10;100376.69;;;16.90;100.00
7333;BME280;3707;43.618;25.342;2023-05-06T01:23:52;100378.50;;;16.83;100.00
7333;BME280;3707;43.618;25.342;2023-05-06T01:26:19;100368.94;;;16.75;100.00
7333;BME280;3707;43.618;25.342;2023-05-06T01:28:46;100365.47;;;16.67;100.00
7333;BME280;3707;43.618;25.342;2023-05-06T01:31:18;100368.09;;;16.73;100.00
7333;BME280;3707;43.618;25.342;2023-05-06T01:33:53;100355.78;;;16.85;100.00
7333;BME280;3707;43.618;25.342;2023-05-06T01:36:28;100370.47;;;17.06;100.00
7333;BME280;3707;43.618;25.342;2023-05-06T01:39:04;100371.34;;;17.08;100.00
7333;BME280;3707;43.618;25.342;2023-05-06T01:41:32;100353.94;;;17.01;100.00
7333;BME280;3707;43.618;25.342;2023-05-06T01:43:59;100367.03;;;16.95;100.00
7333;BME280;3707;43.618;25.342;2023-05-06T01:46:27;100354.81;;;16.97;100.00
7333;BME280;3707;43.618;25.342;2023-05-06T01:48:55;100367.91;;;16.96;100.00
7333;BME280;3707;43.618;25.342;2023-05-06T01:51:24;100364.44;;;16.97;100.00
7333;BME280;3707;43.618;25.342;2023-05-06T01:53:51;100368.78;;;16.96;100.00
7333;BME280;3707;43.618;25.342;2023-05-06T01:56:19;100352.28;;;16.80;100.00
7333;BME280;3707;43.618;25.342;2023-05-06T01:58:46;100351.41;;;16.84;100.00
7333;BME280;3707;43.618;25.342;2023-05-06T02:01:12;100336.63;;;16.76;100.00
7333;BME280;3707;43.618;25.342;2023-05-06T02:03:39;100355.72;;;16.92;100.00
7333;BME280;3707;43.618;25.342;2023-05-06T02:06:06;100353.88;;;17.06;100.00
7333;BME280;3707;43.618;25.342;2023-05-06T02:08:33;100354.78;;;17.03;100.00
7333;BME280;3707;43.618;25.342;2023-05-06T02:11:00;100344.44;;;16.83;100.00
7333;BME280;3707;43.618;25.342;2023-05-06T02:13:28;100342.69;;;16.87;100.00
7333;BME280;3707;43.618;25.342;2023-05-06T02:15:54;100346.22;;;16.80;100.00
7333;BME280;3707;43.618;25.342;2023-05-06T02:18:21;100348.72;;;16.97;100.00
7333;BME280;3707;43.618;25.342;2023-05-06T02:20:49;100340.84;;;16.95;100.00
7333;BME280;3707;43.618;25.342;2023-05-06T02:23:16;100349.56;;;17.00;100.00
7333;BME280;3707;43.618;25.342;2023-05-06T02:25:43;100345.22;;;16.98;100.00
7333;BME280;3707;43.618;25.342;2023-05-06T02:28:10;100319.19;;;16.70;100.00
7333;BME280;3707;43.618;25.342;2023-05-06T02:30:39;100346.06;;;17.04;100.00
7333;BME280;3707;43.618;25.342;2023-05-06T02:33:05;100337.34;;;16.99;100.00
7333;BME280;3707;43.618;25.342;2023-05-06T02:35:32;100343.47;;;16.97;100.00
7333;BME280;3707;43.618;25.342;2023-05-06T02:37:59;100330.50;;;16.74;100.00
7333;BME280;3707;43.618;25.342;2023-05-06T02:40:26;100313.16;;;16.61;100.00
7333;BME280;3707;43.618;25.342;2023-05-06T02:42:53;100326.16;;;16.74;100.00
7333;BME280;3707;43.618;25.342;2023-05-06T02:45:20;100316.63;;;16.60;100.00
7333;BME280;3707;43.618;25.342;2023-05-06T02:47:48;100320.94;;;16.73;100.00
7333;BME280;3707;43.618;25.342;2023-05-06T02:50:14;100327.94;;;16.69;100.00
7333;BME280;3707;43.618;25.342;2023-05-06T02:52:41;100330.53;;;16.71;100.00
7333;BME280;3707;43.618;25.342;2023-05-06T02:55:08;100337.47;;;16.82;100.00
7333;BME280;3707;43.618;25.342;2023-05-06T02:57:35;100319.22;;;16.64;100.00
7333;BME280;3707;43.618;25.342;2023-05-06T03:00:03;100341.06;;;16.62;100.00
7333;BME280;3707;43.618;25.342;2023-05-06T03:02:31;100344.59;;;16.49;100.00
7333;BME280;3707;43.618;25.342;2023-05-06T03:04:59;100348.94;;;16.54;100.00
7333;BME280;3707;43.618;25.342;2023-05-06T03:07:28;100342.06;;;16.33;100.00
7333;BME280;3707;43.618;25.342;2023-05-06T03:09:55;100345.59;;;16.22;100.00
7333;BME280;3707;43.618;25.342;2023-05-06T03:12:22;100341.25;;;16.13;100.00
7333;BME280;3707;43.618;25.342;2023-05-06T03:14:49;100316.00;;;16.02;100.00
7333;BME280;3707;43.618;25.342;2023-05-06T03:17:16;100345.63;;;16.04;100.00
7333;BME280;3707;43.618;25.342;2023-05-06T03:19:42;100347.38;;;16.08;100.00
7333;BME280;3707;43.618;25.342;2023-05-06T03:22:10;100352.53;;;16.27;100.00
7333;BME280;3707;43.618;25.342;2023-05-06T03:24:37;100352.56;;;16.18;100.00
7333;BME280;3707;43.618;25.342;2023-05-06T03:27:04;100349.09;;;16.19;100.00
7333;BME280;3707;43.618;25.342;2023-05-06T03:29:31;100355.13;;;16.35;100.00
7333;BME280;3707;43.618;25.342;2023-05-06T03:32:01;100362.00;;;16.53;100.00
7333;BME280;3707;43.618;25.342;2023-05-06T03:34:29;100366.41;;;16.58;100.00
7333;BME280;3707;43.618;25.342;2023-05-06T03:36:56;100367.09;;;16.89;100.00
7333;BME280;3707;43.618;25.342;2023-05-06T03:39:24;100369.34;;;17.44;100.00
7333;BME280;3707;43.618;25.342;2023-05-06T03:41:51;100384.56;;;18.00;100.00
7333;BME280;3707;43.618;25.342;2023-05-06T03:44:18;100393.44;;;18.66;100.00
7333;BME280;3707;43.618;25.342;2023-05-06T03:46:45;100404.78;;;19.32;100.00
7333;BME280;3707;43.618;25.342;2023-05-06T03:49:11;100399.47;;;19.90;100.00
7333;BME280;3707;43.618;25.342;2023-05-06T03:51:38;100403.06;;;20.32;96.45
7333;BME280;3707;43.618;25.342;2023-05-06T03:54:05;100405.22;;;20.10;93.54
7333;BME280;3707;43.618;25.342;2023-05-06T03:56:33;100413.25;;;20.01;93.75
7333;BME280;3707;43.618;25.342;2023-05-06T03:59:00;100409.72;;;20.04;94.79
7333;BME280;3707;43.618;25.342;2023-05-06T04:01:28;100413.84;;;20.18;93.70
7333;BME280;3707;43.618;25.342;2023-05-06T04:03:54;100411.09;;;20.23;91.79
7333;BME280;3707;43.618;25.342;2023-05-06T04:06:21;100421.63;;;20.24;91.62
7333;BME280;3707;43.618;25.342;2023-05-06T04:08:48;100398.78;;;19.79;92.86
7333;BME280;3707;43.618;25.342;2023-05-06T04:11:15;100428.53;;;19.81;94.12
7333;BME280;3707;43.618;25.342;2023-05-06T04:13:43;100412.69;;;19.84;95.97
7333;BME280;3707;43.618;25.342;2023-05-06T04:16:10;100395.34;;;19.74;94.72
7333;BME280;3707;43.618;25.342;2023-05-06T04:18:37;100420.59;;;19.84;94.78
7333;BME280;3707;43.618;25.342;2023-05-06T04:21:04;100405.03;;;19.72;95.43
7333;BME280;3707;43.618;25.342;2023-05-06T04:23:31;100408.22;;;19.36;96.54
7333;BME280;3707;43.618;25.342;2023-05-06T04:25:58;100413.84;;;19.11;99.26
7333;BME280;3707;43.618;25.342;2023-05-06T04:28:24;100425.88;;;19.27;100.00
7333;BME280;3707;43.618;25.342;2023-05-06T04:30:53;100433.97;;;19.72;100.00
7333;BME280;3707;43.618;25.342;2023-05-06T04:33:19;100433.81;;;19.81;96.11
7333;BME280;3707;43.618;25.342;2023-05-06T04:35:49;100412.44;;;19.98;94.34
7333;BME280;3707;43.618;25.342;2023-05-06T04:38:17;100434.09;;;20.15;93.67
7333;BME280;3707;43.618;25.342;2023-05-06T04:40:44;100437.69;;;20.57;91.28
7333;BME280;3707;43.618;25.342;2023-05-06T04:43:11;100436.66;;;21.05;90.06
7333;BME280;3707;43.618;25.342;2023-05-06T04:45:41;100426.63;;;21.61;83.61
7333;BME280;3707;43.618;25.342;2023-05-06T04:48:15;100437.22;;;22.27;80.90
7333;BME280;3707;43.618;25.342;2023-05-06T04:50:42;100427.72;;;22.20;78.20
7333;BME280;3707;43.618;25.342;2023-05-06T04:53:09;100453.94;;;22.28;75.24
7333;BME280;3707;43.618;25.342;2023-05-06T04:55:36;100460.88;;;21.99;75.91
7333;BME280;3707;43.618;25.342;2023-05-06T04:58:03;100461.53;;;21.72;80.50
7333;BME280;3707;43.618;25.342;2023-05-06T05:00:30;100458.34;;;21.58;80.03
7333;BME280;3707;43.618;25.342;2023-05-06T05:02:56;100453.06;;;21.21;81.11
7333;BME280;3707;43.618;25.342;2023-05-06T05:05:27;100458.91;;;21.34;81.13
7333;BME280;3707;43.618;25.342;2023-05-06T05:07:54;100454.47;;;20.96;83.58
7333;BME280;3707;43.618;25.342;2023-05-06T05:10:21;100473.72;;;20.99;84.17
7333;BME280;3707;43.618;25.342;2023-05-06T05:12:48;100473.06;;;20.90;84.53
7333;BME280;3707;43.618;25.342;2023-05-06T05:15:15;100474.06;;;20.83;85.40
7333;BME280;3707;43.618;25.342;2023-05-06T05:17:41;100458.34;;;20.80;85.75
7333;BME280;3707;43.618;25.342;2023-05-06T05:20:09;100477.16;;;20.60;86.72
7333;BME280;3707;43.618;25.342;2023-05-06T05:22:37;100475.31;;;20.65;87.65
7333;BME280;3707;43.618;25.342;2023-05-06T05:25:05;100477.31;;;20.52;86.40
7333;BME280;3707;43.618;25.342;2023-05-06T05:27:32;100469.19;;;20.63;85.92
7333;BME280;3707;43.618;25.342;2023-05-06T05:29:59;100481.44;;;20.65;87.07
7333;BME280;3707;43.618;25.342;2023-05-06T05:32:26;100486.22;;;20.47;86.21
7333;BME280;3707;43.618;25.342;2023-05-06T05:34:53;100471.31;;;20.44;86.85
7333;BME280;3707;43.618;25.342;2023-05-06T05:37:19;100483.84;;;20.32;85.52
7333;BME280;3707;43.618;25.342;2023-05-06T05:39:48;100464.00;;;20.60;85.68
7333;BME280;3707;43.618;25.342;2023-05-06T05:42:14;100485.59;;;20.78;85.19
7333;BME280;3707;43.618;25.342;2023-05-06T05:44:41;100462.06;;;20.68;82.54
7333;BME280;3707;43.618;25.342;2023-05-06T05:47:08;100484.63;;;20.81;83.21
7333;BME280;3707;43.618;25.342;2023-05-06T05:49:35;100488.44;;;21.11;82.41
7333;BME280;3707;43.618;25.342;2023-05-06T05:52:01;100472.19;;;20.88;82.32
7333;BME280;3707;43.618;25.342;2023-05-06T05:54:28;100461.06;;;20.75;83.78
7333;BME280;3707;43.618;25.342;2023-05-06T05:56:56;100486.41;;;21.23;83.61
7333;BME280;3707;43.618;25.342;2023-05-06T05:59:23;100497.44;;;21.41;80.03
7333;BME280;3707;43.618;25.342;2023-05-06T06:01:50;100495.31;;;21.58;78.75
7333;BME280;3707;43.618;25.342;2023-05-06T06:04:17;100475.59;;;21.34;80.46
7333;BME280;3707;43.618;25.342;2023-05-06T06:06:44;100486.06;;;20.97;82.73
7333;BME280;3707;43.618;25.342;2023-05-06T06:09:11;100495.59;;;21.04;80.89
7333;BME280;3707;43.618;25.342;2023-05-06T06:11:38;100501.91;;;21.37;80.46
7333;BME280;3707;43.618;25.342;2023-05-06T06:14:06;100488.47;;;21.48;79.13
7333;BME280;3707;43.618;25.342;2023-05-06T06:16:33;100483.19;;;21.49;79.49
7333;BME280;3707;43.618;25.342;2023-05-06T06:19:01;100493.88;;;21.80;79.26
7333;BME280;3707;43.618;25.342;2023-05-06T06:21:28;100496.38;;;21.86;74.82
7333;BME280;3707;43.618;25.342;2023-05-06T06:23:55;100475.84;;;21.99;73.01
7333;BME280;3707;43.618;25.342;2023-05-06T06:26:22;100497.59;;;22.08;73.07
7333;BME280;3707;43.618;25.342;2023-05-06T06:28:48;100500.69;;;22.26;71.22
7333;BME280;3707;43.618;25.342;2023-05-06T06:31:17;100478.41;;;22.36;69.13
7333;BME280;3707;43.618;25.342;2023-05-06T06:33:44;100494.75;;;22.82;67.67
7333;BME280;3707;43.618;25.342;2023-05-06T06:36:10;100489.97;;;22.64;68.78
7333;BME280;3707;43.618;25.342;2023-05-06T06:38:37;100492.50;;;22.99;63.90
7333;BME280;3707;43.618;25.342;2023-05-06T06:41:05;100489.66;;;23.05;62.93
7333;BME280;3707;43.618;25.342;2023-05-06T06:43:32;100501.16;;;23.34;64.33
7333;BME280;3707;43.618;25.342;2023-05-06T06:45:59;100508.22;;;23.33;61.38
7333;BME280;3707;43.618;25.342;2023-05-06T06:48:27;100494.03;;;23.36;59.77
7333;BME280;3707;43.618;25.342;2023-05-06T06:50:54;100509.25;;;22.98;61.86
7333;BME280;3707;43.618;25.342;2023-05-06T06:53:21;100503.50;;;23.44;61.65
7333;BME280;3707;43.618;25.342;2023-05-06T06:55:48;100492.53;;;22.98;59.30
7333;BME280;3707;43.618;25.342;2023-05-06T06:58:15;100504.97;;;22.94;59.72
7333;BME280;3707;43.618;25.342;2023-05-06T07:00:41;100514.56;;;22.98;60.43
7333;BME280;3707;43.618;25.342;2023-05-06T07:03:08;100507.28;;;23.65;60.56
7333;BME280;3707;43.618;25.342;2023-05-06T07:05:36;100522.88;;;23.46;59.40
7333;BME280;3707;43.618;25.342;2023-05-06T07:08:03;100522.41;;;22.70;61.02
7333;BME280;3707;43.618;25.342;2023-05-06T07:10:30;100523.72;;;22.20;63.31
7333;BME280;3707;43.618;25.342;2023-05-06T07:12:57;100517.13;;;22.01;64.09
7333;BME280;3707;43.618;25.342;2023-05-06T07:15:24;100519.47;;;22.15;64.45
7333;BME280;3707;43.618;25.342;2023-05-06T07:17:50;100523.63;;;22.57;63.04
7333;BME280;3707;43.618;25.342;2023-05-06T07:20:17;100510.19;;;22.65;63.16
7333;BME280;3707;43.618;25.342;2023-05-06T07:22:45;100519.91;;;22.64;62.78
7333;BME280;3707;43.618;25.342;2023-05-06T07:25:12;100497.81;;;22.35;63.72
7333;BME280;3707;43.618;25.342;2023-05-06T07:27:39;100519.38;;;21.81;65.40
7333;BME280;3707;43.618;25.342;2023-05-06T07:30:07;100509.91;;;22.09;64.26
7333;BME280;3707;43.618;25.342;2023-05-06T07:32:34;100518.00;;;22.71;62.25
7333;BME280;3707;43.618;25.342;2023-05-06T07:35:01;100519.53;;;22.46;62.36
7333;BME280;3707;43.618;25.342;2023-05-06T07:37:28;100525.41;;;22.89;61.25
7333;BME280;3707;43.618;25.342;2023-05-06T07:39:57;100511.41;;;22.19;63.33
7333;BME280;3707;43.618;25.342;2023-05-06T07:42:23;100524.06;;;22.75;65.20
7333;BME280;3707;43.618;25.342;2023-05-06T07:44:50;100521.25;;;23.11;61.32
7333;BME280;3707;43.618;25.342;2023-05-06T07:47:25;100526.69;;;23.36;59.92
7333;BME280;3707;43.618;25.342;2023-05-06T07:49:52;100521.00;;;22.56;62.86
7333;BME280;3707;43.618;25.342;2023-05-06T07:52:19;100451.19;;;21.98;61.76
7333;BME280;3707;43.618;25.342;2023-05-06T07:54:46;100530.13;;;22.44;61.91
7333;BME280;3707;43.618;25.342;2023-05-06T07:57:14;100528.19;;;21.80;62.97
7333;BME280;3707;43.618;25.342;2023-05-06T07:59:41;100517.88;;;21.71;64.02
7333;BME280;3707;43.618;25.342;2023-05-06T08:02:08;100509.59;;;21.48;66.24
7333;BME280;3707;43.618;25.342;2023-05-06T08:04:35;100502.41;;;21.93;65.18
7333;BME280;3707;43.618;25.342;2023-05-06T08:07:01;100510.25;;;21.96;65.46
7333;BME280;3707;43.618;25.342;2023-05-06T08:09:28;100513.59;;;22.02;64.52
7333;BME280;3707;43.618;25.342;2023-05-06T08:11:55;100504.06;;;21.20;67.96
7333;BME280;3707;43.618;25.342;2023-05-06T08:14:24;100530.78;;;21.45;66.20
7333;BME280;3707;43.618;25.342;2023-05-06T08:16:51;100530.22;;;21.69;66.98
7333;BME280;3707;43.618;25.342;2023-05-06T08:19:18;100530.81;;;21.80;68.97
7333;BME280;3707;43.618;25.342;2023-05-06T08:21:45;100528.00;;;21.89;66.04
7333;BME280;3707;43.618;25.342;2023-05-06T08:24:13;100532.72;;;21.75;66.46
7333;BME280;3707;43.618;25.342;2023-05-06T08:26:40;100533.88;;;21.63;68.09
7333;BME280;3707;43.618;25.342;2023-05-06T08:29:07;100515.97;;;21.39;68.58
7333;BME280;3707;43.618;25.342;2023-05-06T08:31:35;100529.22;;;21.74;70.83
7333;BME280;3707;43.618;25.342;2023-05-06T08:34:02;100519.09;;;21.56;67.98
7333;BME280;3707;43.618;25.342;2023-05-06T08:36:28;100531.28;;;22.00;67.13
7333;BME280;3707;43.618;25.342;2023-05-06T08:38:55;100522.81;;;22.21;66.40
7333;BME280;3707;43.618;25.342;2023-05-06T08:41:24;100522.97;;;22.48;65.00
7333;BME280;3707;43.618;25.342;2023-05-06T09:30:00;100491.13;;;21.08;67.88
7333;BME280;3707;43.618;25.342;2023-05-06T09:32:27;100488.09;;;21.64;66.52
7333;BME280;3707;43.618;25.342;2023-05-06T09:34:54;100495.31;;;21.58;66.89
7333;BME280;3707;43.618;25.342;2023-05-06T09:37:21;100498.34;;;21.78;64.53
7333;BME280;3707;43.618;25.342;2023-05-06T09:39:49;100460.13;;;22.27;62.40
7333;BME280;3707;43.618;25.342;2023-05-06T09:42:21;100459.31;;;22.57;59.43
7333;BME280;3707;43.618;25.342;2023-05-06T09:44:48;100497.38;;;22.17;59.91
7333;BME280;3707;43.618;25.342;2023-05-06T09:47:16;100490.03;;;22.29;60.87
7333;BME280;3707;43.618;25.342;2023-05-06T09:49:43;100485.84;;;22.54;61.09
7333;BME280;3707;43.618;25.342;2023-05-06T09:52:10;100456.19;;;22.43;59.58
7333;BME280;3707;43.618;25.342;2023-05-06T09:54:38;100468.22;;;22.53;59.83
7333;BME280;3707;43.618;25.342;2023-05-06T09:57:06;100452.22;;;22.27;59.69
7333;BME280;3707;43.618;25.342;2023-05-06T09:59:33;100481.88;;;22.04;60.40
7333;BME280;3707;43.618;25.342;2023-05-06T10:02:01;100476.69;;;22.01;60.96
7333;BME280;3707;43.618;25.342;2023-05-06T10:04:29;100448.91;;;22.51;58.95
7333;BME280;3707;43.618;25.342;2023-05-06T10:06:58;100473.97;;;22.99;57.72
7333;BME280;3707;43.618;25.342;2023-05-06T10:09:28;100474.31;;;22.56;57.95
7333;BME280;3707;43.618;25.342;2023-05-06T10:11:56;100466.34;;;22.58;58.73
7333;BME280;3707;43.618;25.342;2023-05-06T10:14:24;100452.75;;;22.07;58.50
7333;BME280;3707;43.618;25.342;2023-05-06T10:16:51;100442.63;;;22.22;57.35
7333;BME280;3707;43.618;25.342;2023-05-06T10:19:22;100464.69;;;22.86;55.81
7333;BME280;3707;43.618;25.342;2023-05-06T10:21:57;100453.75;;;22.66;55.77
7333;BME280;3707;43.618;25.342;2023-05-06T10:24:32;100465.81;;;22.76;55.50
7333;BME280;3707;43.618;25.342;2023-05-06T10:27:04;100462.19;;;22.80;55.13
7333;BME280;3707;43.618;25.342;2023-05-06T10:29:34;100461.88;;;22.28;56.26
7333;BME280;3707;43.618;25.342;2023-05-06T10:32:03;100463.34;;;22.38;58.09
7333;BME280;3707;43.618;25.342;2023-05-06T10:34:37;100460.53;;;22.76;55.98
7333;BME280;3707;43.618;25.342;2023-05-06T10:37:08;100462.34;;;23.05;54.29
7333;BME280;3707;43.618;25.342;2023-05-06T10:39:36;100454.41;;;22.76;54.75
7333;BME280;3707;43.618;25.342;2023-05-06T10:42:03;100455.50;;;22.98;53.28
7333;BME280;3707;43.618;25.342;2023-05-06T10:44:56;100451.31;;;23.48;52.86
7333;BME280;3707;43.618;25.342;2023-05-06T10:47:22;100413.63;;;23.40;52.44
7333;BME280;3707;43.618;25.342;2023-05-06T10:50:20;100459.09;;;23.80;51.20
7333;BME280;3707;43.618;25.342;2023-05-06T10:52:50;100448.81;;;23.71;51.38
7333;BME280;3707;43.618;25.342;2023-05-06T10:55:28;100446.91;;;23.19;51.80
7333;BME280;3707;43.618;25.342;2023-05-06T10:57:56;100437.72;;;22.73;53.00
7333;BME280;3707;43.618;25.342;2023-05-06T11:00:23;100437.31;;;22.55;52.05
7333;BME280;3707;43.618;25.342;2023-05-06T11:02:56;100440.75;;;22.58;52.20
7333;BME280;3707;43.618;25.342;2023-05-06T11:05:23;100454.50;;;23.02;52.27
7333;BME280;3707;43.618;25.342;2023-05-06T11:07:51;100420.78;;;23.08;51.29
7333;BME280;3707;43.618;25.342;2023-05-06T11:10:31;100450.81;;;23.35;51.08
7333;BME280;3707;43.618;25.342;2023-05-06T11:13:17;100439.38;;;23.07;51.84
7333;BME280;3707;43.618;25.342;2023-05-06T11:15:45;100448.38;;;22.70;52.59
7333;BME280;3707;43.618;25.342;2023-05-06T11:18:40;100443.66;;;22.82;52.51
7333;BME280;3707;43.618;25.342;2023-05-06T11:21:40;100440.63;;;22.63;52.27
7333;BME280;3707;43.618;25.342;2023-05-06T11:24:10;100442.59;;;22.56;52.34
7333;BME280;3707;43.618;25.342;2023-05-06T11:26:41;100440.16;;;22.49;51.86
7333;BME280;3707;43.618;25.342;2023-05-06T11:29:08;100452.81;;;22.99;49.97
7333;BME280;3707;43.618;25.342;2023-05-06T11:31:40;100443.31;;;23.21;49.33
7333;BME280;3707;43.618;25.342;2023-05-06T11:34:09;100448.06;;;23.10;48.83
7333;BME280;3707;43.618;25.342;2023-05-06T11:36:45;100452.56;;;23.36;50.02
7333;BME280;3707;43.618;25.342;2023-05-06T11:39:13;100451.38;;;23.18;50.96
7333;BME280;3707;43.618;25.342;2023-05-06T11:41:40;100443.75;;;23.36;50.51
7333;BME280;3707;43.618;25.342;2023-05-06T11:44:07;100440.72;;;23.20;49.94
7333;BME280;3707;43.618;25.342;2023-05-06T11:46:36;100441.03;;;23.37;50.62
7333;BME280;3707;43.618;25.342;2023-05-06T11:49:03;100448.31;;;23.31;50.49
7333;BME280;3707;43.618;25.342;2023-05-06T11:51:30;100442.56;;;22.89;51.45
7333;BME280;3707;43.618;25.342;2023-05-06T11:54:07;100454.38;;;23.06;51.91
7333;BME280;3707;43.618;25.342;2023-05-06T11:56:55;100450.28;;;22.96;51.79
7333;BME280;3707;43.618;25.342;2023-05-06T11:59:28;100447.53;;;22.99;51.69
7333;BME280;3707;43.618;25.342;2023-05-06T12:01:56;100445.31;;;23.15;51.43
7333;BME280;3707;43.618;25.342;2023-05-06T12:04:23;100443.69;;;23.09;50.99
7333;BME280;3707;43.618;25.342;2023-05-06T12:06:50;100437.16;;;23.21;51.26
7333;BME280;3707;43.618;25.342;2023-05-06T12:09:18;100422.72;;;23.03;51.58
7333;BME280;3707;43.618;25.342;2023-05-06T12:11:48;100419.56;;;23.48;51.06
7333;BME280;3707;43.618;25.342;2023-05-06T12:14:15;100422.78;;;23.84;51.13
7333;BME280;3707;43.618;25.342;2023-05-06T12:16:43;100430.75;;;24.35;49.44
7333;BME280;3707;43.618;25.342;2023-05-06T12:19:10;100436.31;;;24.01;49.35
7333;BME280;3707;43.618;25.342;2023-05-06T12:21:37;100440.88;;;23.71;49.71
7333;BME280;3707;43.618;25.342;2023-05-06T12:24:04;100425.25;;;23.34;48.92
7333;BME280;3707;43.618;25.342;2023-05-06T12:26:42;100442.91;;;23.34;49.63
7333;BME280;3707;43.618;25.342;2023-05-06T12:29:13;100417.66;;;22.96;50.93
7333;BME280;3707;43.618;25.342;2023-05-06T12:31:41;100443.69;;;23.09;50.42
7333;BME280;3707;43.618;25.342;2023-05-06T12:34:09;100405.41;;;23.21;50.14
7333;BME280;3707;43.618;25.342;2023-05-06T12:36:40;100432.56;;;23.55;50.51
7333;BME280;3707;43.618;25.342;2023-05-06T12:39:07;100421.38;;;23.98;48.82
7333;BME280;3707;43.618;25.342;2023-05-06T12:41:38;100412.97;;;23.61;48.17
7333;BME280;3707;43.618;25.342;2023-05-06T12:44:35;100426.00;;;23.67;48.87
7333;BME280;3707;43.618;25.342;2023-05-06T12:47:03;100403.53;;;23.25;48.41
7333;BME280;3707;43.618;25.342;2023-05-06T12:49:48;100414.25;;;23.48;48.36
7333;BME280;3707;43.618;25.342;2023-05-06T12:52:16;100407.41;;;23.41;48.10
7333;BME280;3707;43.618;25.342;2023-05-06T12:54:44;100412.25;;;23.56;48.06
7333;BME280;3707;43.618;25.342;2023-05-06T12:57:11;100412.72;;;23.68;49.26
7333;BME280;3707;43.618;25.342;2023-05-06T12:59:39;100369.38;;;23.96;48.18
7333;BME280;3707;43.618;25.342;2023-05-06T13:02:06;100404.72;;;24.46;48.45
7333;BME280;3707;43.618;25.342;2023-05-06T13:04:33;100406.03;;;24.08;49.07
7333;BME280;3707;43.618;25.342;2023-05-06T13:07:00;100413.56;;;23.69;48.91
7333;BME280;3707;43.618;25.342;2023-05-06T13:09:26;100409.84;;;23.20;49.69
7333;BME280;3707;43.618;25.342;2023-05-06T13:11:53;100409.25;;;23.39;49.22
7333;BME280;3707;43.618;25.342;2023-05-06T13:14:20;100386.81;;;23.22;49.03
7333;BME280;3707;43.618;25.342;2023-05-06T13:16:48;100406.28;;;23.49;48.15
7333;BME280;3707;43.618;25.342;2023-05-06T13:19:16;100401.84;;;23.76;48.14
7333;BME280;3707;43.618;25.342;2023-05-06T13:21:42;100397.44;;;23.50;49.55
7333;BME280;3707;43.618;25.342;2023-05-06T13:24:10;100395.38;;;23.31;49.34
7333;BME280;3707;43.618;25.342;2023-05-06T13:26:37;100402.81;;;23.19;48.35
7333;BME280;3707;43.618;25.342;2023-05-06T13:29:04;100387.44;;;23.58;47.06
7333;BME280;3707;43.618;25.342;2023-05-06T13:31:31;100370.09;;;23.50;48.09
7333;BME280;3707;43.618;25.342;2023-05-06T13:34:00;100384.28;;;23.74;48.45
7333;BME280;3707;43.618;25.342;2023-05-06T13:36:27;100380.88;;;23.70;47.80
7333;BME280;3707;43.618;25.342;2023-05-06T13:38:53;100375.66;;;23.68;48.86
7333;BME280;3707;43.618;25.342;2023-05-06T13:41:21;100383.59;;;23.42;48.99
7333;BME280;3707;43.618;25.342;2023-05-06T13:43:49;100382.06;;;23.34;48.96
7333;BME280;3707;43.618;25.342;2023-05-06T13:46:16;100369.66;;;23.36;47.91
7333;BME280;3707;43.618;25.342;2023-05-06T13:48:43;100383.44;;;23.47;47.70
7333;BME280;3707;43.618;25.342;2023-05-06T13:51:11;100368.13;;;23.29;48.03